Plantation, Florida
Current Conditions -  °F | °C
As of 9:53 PM on Saturday 22 Nov 2014 (Local Time) from KFXE Reporting Station
Overcast Overcast  
Wind Chill: 76°   Ceiling: 2800
Heat Index: 76°   Visibility: 10mi
Dew Point: 72°   Wind: 18mph
Humidity: 87%   Direction: 100°E
Pressure: 30.08"   Gusts: NA
Location:  26.13°N, 80.24°W
Report Text: KFXE 230253Z 10016KT 10SM SCT017 BKN028 OVC035 24/22 A3008 RMK AO2 PK WND 10030/0217 RAE15 SLP189 P0004 60006 T02440222 50002
Loading
Personal Weather Stations






























Interactive Weather Map New forecast layout! Learn more

10-Day Weather Forecast

Advertisements
Track Severe Weather on mobile